Terminal Aerodrome Forecast
Issued by NWS

Home | Current Version | Previous Version | Text Only | Print | Product List | Glossary On
Versions: 1 2 3 4 5 6 7 8 9 10 11 12 13 14 15 16 17 18
000
FTUS44 KOHX 240000 AAA
TAFCKV
TAF AMD
KCKV 240026Z 2400/2424 01010KT P6SM SCT250
     FM240300 36006KT P6SM OVC025
     FM240900 36005KT 4SM BR OVC012
     FM241400 02008KT P6SM BKN025
     FM241700 01009KT P6SM SCT250=

USA.gov is the U.S. government's official web portal to all federal, state and local government web resources and services.